Time;durP1;ratioP1;P1;durP2;ratioP2;P2;SDS_P1;SDS_P2;PMS_P1;PMS_P2;Temp;Humidity;BMP_temperature;BMP_pressure;BME280_temperature;BME280_humidity;BME280_pressure;Samples;Min_cycle;Max_cycle;Signal;HPM_P1;HPM_P2
2022/12/27 00:00:24;;;;;;;0.80;0.80;;;;;;;;;;5027269;28;20909;-68
2022/12/27 00:02:50;;;;;;;0.50;0.50;;;;;;;;;;5030569;28;20432;-69
2022/12/27 00:05:16;;;;;;;0.40;0.40;;;;;;;;;;5028967;28;20439;-69
2022/12/27 00:07:43;;;;;;;0.30;0.30;;;;;;;;;;5021398;28;20435;-69
2022/12/27 00:10:09;;;;;;;0.73;0.40;;;;;;;;;;5026493;28;20474;-69
2022/12/27 00:12:35;;;;;;;7.60;1.00;;;;;;;;;;5027053;28;20447;-69
2022/12/27 00:15:02;;;;;;;0.60;0.60;;;;;;;;;;5029617;28;20447;-68
2022/12/27 00:17:28;;;;;;;3.33;0.80;;;;;;;;;;5027237;28;20435;-69
2022/12/27 00:19:54;;;;;;;0.47;0.47;;;;;;;;;;5029021;28;20419;-69
2022/12/27 00:22:20;;;;;;;3.30;0.60;;;;;;;;;;5027667;28;20432;-68
2022/12/27 00:24:46;;;;;;;0.53;0.53;;;;;;;;;;5030087;28;20461;-69
2022/12/27 00:27:12;;;;;;;1.33;0.80;;;;;;;;;;5030168;28;20430;-68
2022/12/27 00:29:38;;;;;;;2.20;0.50;;;;;;;;;;5028580;28;20418;-68
2022/12/27 00:32:04;;;;;;;0.60;0.60;;;;;;;;;;5027762;28;20509;-69
2022/12/27 00:34:30;;;;;;;0.60;0.60;;;;;;;;;;5027113;28;20450;-69
2022/12/27 00:36:56;;;;;;;1.03;0.47;;;;;;;;;;5029578;28;20439;-68
2022/12/27 00:39:22;;;;;;;0.70;0.70;;;;;;;;;;5029450;28;20502;-69
2022/12/27 00:41:48;;;;;;;0.73;0.63;;;;;;;;;;5028958;28;20528;-68
2022/12/27 00:44:14;;;;;;;1.40;1.30;;;;;;;;;;5026656;28;20434;-68
2022/12/27 00:46:40;;;;;;;0.40;0.40;;;;;;;;;;5010862;28;20470;-68
2022/12/27 00:49:06;;;;;;;2.53;0.60;;;;;;;;;;5029464;28;20420;-68
2022/12/27 00:51:32;;;;;;;1.53;0.70;;;;;;;;;;5029687;28;20884;-69
2022/12/27 00:53:59;;;;;;;1.47;0.43;;;;;;;;;;5029600;28;20459;-68
2022/12/27 00:56:26;;;;;;;3.93;0.80;;;;;;;;;;5029065;28;20526;-68
2022/12/27 00:58:57;;;;;;;0.60;0.50;;;;;;;;;;5027473;28;20434;-68
2022/12/27 01:01:24;;;;;;;0.67;0.60;;;;;;;;;;5027067;28;20423;-68
2022/12/27 01:03:50;;;;;;;0.40;0.40;;;;;;;;;;5028317;28;20438;-69
2022/12/27 01:06:17;;;;;;;2.27;0.50;;;;;;;;;;5029630;28;20415;-69
2022/12/27 01:08:43;;;;;;;1.47;0.93;;;;;;;;;;5028886;28;20439;-69
2022/12/27 01:11:10;;;;;;;1.27;1.17;;;;;;;;;;5026820;28;20479;-68
2022/12/27 01:13:36;;;;;;;0.77;0.77;;;;;;;;;;5028326;28;20428;-69
2022/12/27 01:16:08;;;;;;;4.17;0.50;;;;;;;;;;5027386;28;20949;-69
2022/12/27 01:18:34;;;;;;;1.60;0.80;;;;;;;;;;5029069;28;20990;-69
2022/12/27 01:21:03;;;;;;;1.80;0.90;;;;;;;;;;5029509;28;20431;-68
2022/12/27 01:23:31;;;;;;;0.60;0.60;;;;;;;;;;5026267;28;20502;-68
2022/12/27 01:26:00;;;;;;;2.40;1.27;;;;;;;;;;5029511;28;20444;-68
2022/12/27 01:28:26;;;;;;;0.70;0.70;;;;;;;;;;5026557;28;20417;-69
2022/12/27 01:30:52;;;;;;;2.10;0.90;;;;;;;;;;5029091;28;20478;-68
2022/12/27 01:33:18;;;;;;;0.50;0.50;;;;;;;;;;5008286;28;20423;-68
2022/12/27 01:35:44;;;;;;;0.63;0.63;;;;;;;;;;5029317;28;20430;-69
2022/12/27 01:38:10;;;;;;;0.70;0.60;;;;;;;;;;5029235;28;20469;-69
2022/12/27 01:40:36;;;;;;;1.00;0.53;;;;;;;;;;5028853;28;20479;-69
2022/12/27 01:43:03;;;;;;;3.40;0.70;;;;;;;;;;5030456;28;20419;-69
2022/12/27 01:45:32;;;;;;;0.60;0.60;;;;;;;;;;5032810;28;20439;-68
2022/12/27 01:47:58;;;;;;;3.90;0.70;;;;;;;;;;5032089;28;20456;-69
2022/12/27 01:50:30;;;;;;;2.40;0.57;;;;;;;;;;5030331;28;20552;-68
2022/12/27 01:53:14;;;;;;;4.40;0.70;;;;;;;;;;5030627;28;20427;-69
2022/12/27 01:55:53;;;;;;;5.50;1.40;;;;;;;;;;5029789;28;20426;-68
2022/12/27 01:58:29;;;;;;;18.77;0.80;;;;;;;;;;5032445;28;20498;-68
2022/12/27 02:00:56;;;;;;;1.60;1.07;;;;;;;;;;5013774;28;20427;-68
2022/12/27 02:03:24;;;;;;;7.80;0.90;;;;;;;;;;5031224;28;20900;-68
2022/12/27 02:05:51;;;;;;;3.83;0.70;;;;;;;;;;5029651;28;20481;-68
2022/12/27 02:08:21;;;;;;;8.27;0.83;;;;;;;;;;5031504;28;20492;-68
2022/12/27 02:10:47;;;;;;;3.83;1.03;;;;;;;;;;5032582;28;20482;-68
2022/12/27 02:13:14;;;;;;;3.73;0.53;;;;;;;;;;5028500;28;20486;-68
2022/12/27 02:15:40;;;;;;;1.47;0.50;;;;;;;;;;5016871;28;20775;-68
2022/12/27 02:18:07;;;;;;;2.70;0.70;;;;;;;;;;5032658;28;20446;-68
2022/12/27 02:20:42;;;;;;;0.70;0.70;;;;;;;;;;5028688;28;20944;-68
2022/12/27 02:26:20;;;;;;;0.57;0.57;;;;;;;;;;5031128;28;20473;-68
2022/12/27 02:29:06;;;;;;;3.30;1.00;;;;;;;;;;5029312;28;20958;-69
2022/12/27 02:31:40;;;;;;;0.73;0.70;;;;;;;;;;5032724;28;20478;-69
2022/12/27 02:34:10;;;;;;;6.03;0.80;;;;;;;;;;5014507;28;20756;-69
2022/12/27 02:36:36;;;;;;;0.83;0.70;;;;;;;;;;5028499;28;20441;-68
2022/12/27 02:39:03;;;;;;;0.60;0.60;;;;;;;;;;5031542;28;20473;-68
2022/12/27 02:53:08;;;;;;;0.50;0.50;;;;;;;;;;5031876;28;20596;-69
2022/12/27 02:58:57;;;;;;;1.00;0.90;;;;;;;;;;5026600;28;20477;-67
2022/12/27 03:04:13;;;;;;;0.97;0.77;;;;;;;;;;5031414;28;20411;-69
2022/12/27 03:06:51;;;;;;;0.73;0.67;;;;;;;;;;5028989;28;20427;-68
2022/12/27 03:18:00;;;;;;;1.33;0.70;;;;;;;;;;5030366;28;21017;-68
2022/12/27 03:25:58;;;;;;;0.60;0.60;;;;;;;;;;5026830;28;20422;-69
2022/12/27 03:34:30;;;;;;;0.70;0.70;;;;;;;;;;5030336;28;20839;-69
2022/12/27 03:39:34;;;;;;;0.83;0.80;;;;;;;;;;5028910;28;20441;-69
2022/12/27 03:44:47;;;;;;;1.60;1.10;;;;;;;;;;5029963;28;20484;-68
2022/12/27 03:47:27;;;;;;;1.47;0.57;;;;;;;;;;5029750;28;20469;-68
2022/12/27 03:50:14;;;;;;;0.93;0.93;;;;;;;;;;5027636;28;20427;-69
2022/12/27 03:52:52;;;;;;;4.53;0.80;;;;;;;;;;5030249;28;20427;-68
2022/12/27 03:55:18;;;;;;;1.00;1.00;;;;;;;;;;5028167;28;20439;-69
2022/12/27 03:57:45;;;;;;;1.47;0.83;;;;;;;;;;5029488;28;20449;-68
2022/12/27 04:00:11;;;;;;;0.97;0.93;;;;;;;;;;5027499;28;20435;-68
2022/12/27 04:02:37;;;;;;;8.70;1.27;;;;;;;;;;5030501;28;20420;-68
2022/12/27 04:05:03;;;;;;;1.30;1.30;;;;;;;;;;5010830;28;20430;-68
2022/12/27 04:07:29;;;;;;;1.27;1.27;;;;;;;;;;5030072;28;20423;-68
2022/12/27 04:34:41;;;;;;;8.37;1.80;;;;;;;;;;5027996;28;20931;-68
2022/12/27 04:37:08;;;;;;;7.03;3.10;;;;;;;;;;5028767;28;21095;-69
2022/12/27 04:39:34;;;;;;;3.50;3.17;;;;;;;;;;5027769;28;20431;-68
2022/12/27 04:56:03;;;;;;;1.60;1.20;;;;;;;;;;5010168;28;20411;-68
2022/12/27 04:58:29;;;;;;;4.00;1.50;;;;;;;;;;5008852;28;20522;-68
2022/12/27 05:03:42;;;;;;;1.00;0.73;;;;;;;;;;5010492;28;20824;-68
2022/12/27 05:06:09;;;;;;;1.00;1.00;;;;;;;;;;5005742;28;20440;-69
2022/12/27 05:14:06;;;;;;;2.57;0.90;;;;;;;;;;5009129;28;20512;-68
2022/12/27 05:16:39;;;;;;;2.20;1.37;;;;;;;;;;5008565;28;20444;-69
2022/12/27 05:19:05;;;;;;;1.80;1.10;;;;;;;;;;5012277;28;20463;-69
2022/12/27 05:21:34;;;;;;;3.10;1.60;;;;;;;;;;5012062;28;20494;-68
2022/12/27 05:26:45;;;;;;;2.33;1.67;;;;;;;;;;5011815;28;21034;-69
2022/12/27 05:29:11;;;;;;;4.40;1.40;;;;;;;;;;5011984;28;20420;-69
2022/12/27 05:31:37;;;;;;;2.80;1.60;;;;;;;;;;5012741;28;20483;-68
2022/12/27 05:34:04;;;;;;;4.00;1.40;;;;;;;;;;5013023;28;20423;-68
2022/12/27 05:36:30;;;;;;;2.47;1.40;;;;;;;;;;5013127;28;21014;-68
2022/12/27 05:38:55;;;;;;;1.40;1.30;;;;;;;;;;5011480;28;20420;-68
2022/12/27 05:41:21;;;;;;;1.80;1.13;;;;;;;;;;5025769;28;20872;-69
2022/12/27 05:43:48;;;;;;;1.40;1.30;;;;;;;;;;5032974;28;20477;-68
2022/12/27 05:46:15;;;;;;;5.70;1.30;;;;;;;;;;5033236;28;20522;-68
2022/12/27 05:48:41;;;;;;;5.60;1.17;;;;;;;;;;5029449;28;20432;-68
2022/12/27 05:51:14;;;;;;;1.30;1.30;;;;;;;;;;5013982;28;21162;-69
2022/12/27 05:53:41;;;;;;;1.40;1.30;;;;;;;;;;5033167;28;20465;-68
2022/12/27 05:56:07;;;;;;;1.37;1.33;;;;;;;;;;5029815;28;20440;-69
2022/12/27 05:58:34;;;;;;;1.23;1.13;;;;;;;;;;5026948;28;20997;-69
2022/12/27 06:01:00;;;;;;;2.33;1.20;;;;;;;;;;5030872;28;20431;-69
2022/12/27 06:03:26;;;;;;;1.20;1.20;;;;;;;;;;5015495;28;20767;-69
2022/12/27 06:05:58;;;;;;;1.20;1.20;;;;;;;;;;5030044;28;20434;-68
2022/12/27 06:08:24;;;;;;;1.50;1.20;;;;;;;;;;5031917;28;20488;-69
2022/12/27 06:10:52;;;;;;;3.53;0.83;;;;;;;;;;5032447;28;20483;-69
2022/12/27 06:13:18;;;;;;;1.47;1.10;;;;;;;;;;5029474;28;20439;-69
2022/12/27 06:15:44;;;;;;;3.60;1.00;;;;;;;;;;5031101;28;20470;-69
2022/12/27 06:18:10;;;;;;;1.20;1.17;;;;;;;;;;5029533;28;20492;-69
2022/12/27 06:20:36;;;;;;;1.57;1.47;;;;;;;;;;5030480;28;20427;-69
2022/12/27 06:23:02;;;;;;;2.00;1.93;;;;;;;;;;5030217;28;20446;-68
2022/12/27 06:25:28;;;;;;;5.07;2.30;;;;;;;;;;5031670;28;20451;-69
2022/12/27 06:27:54;;;;;;;2.47;1.07;;;;;;;;;;5031076;28;20439;-69
2022/12/27 06:30:20;;;;;;;5.63;1.83;;;;;;;;;;5030775;28;20545;-69
2022/12/27 06:32:46;;;;;;;1.57;1.57;;;;;;;;;;5029181;28;20874;-69
2022/12/27 06:35:12;;;;;;;3.47;2.27;;;;;;;;;;5029231;28;20427;-68
2022/12/27 06:37:38;;;;;;;1.80;1.80;;;;;;;;;;5026416;28;20437;-69
2022/12/27 06:40:04;;;;;;;1.77;1.63;;;;;;;;;;5030371;28;20467;-69
2022/12/27 06:42:30;;;;;;;2.87;2.77;;;;;;;;;;5022206;28;20443;-69
2022/12/27 06:44:56;;;;;;;2.07;1.97;;;;;;;;;;5030399;28;20813;-68
2022/12/27 06:47:22;;;;;;;1.83;1.73;;;;;;;;;;5030062;28;20995;-68
2022/12/27 06:49:48;;;;;;;3.60;1.80;;;;;;;;;;5009691;28;20822;-69
2022/12/27 06:52:14;;;;;;;2.90;2.67;;;;;;;;;;5026867;28;20652;-68
2022/12/27 06:54:40;;;;;;;3.10;3.00;;;;;;;;;;5027897;28;20427;-69
2022/12/27 06:57:06;;;;;;;3.50;3.30;;;;;;;;;;5026064;28;20427;-68
2022/12/27 06:59:32;;;;;;;3.13;3.03;;;;;;;;;;5009806;28;20454;-68
2022/12/27 07:01:58;;;;;;;9.40;2.43;;;;;;;;;;5025066;28;20436;-68
2022/12/27 07:04:24;;;;;;;3.60;2.90;;;;;;;;;;5025057;28;20451;-68
2022/12/27 07:06:50;;;;;;;5.80;5.27;;;;;;;;;;5031552;28;20435;-68
2022/12/27 07:09:16;;;;;;;4.40;4.10;;;;;;;;;;5027908;28;20770;-68
2022/12/27 07:11:42;;;;;;;3.70;3.50;;;;;;;;;;5030342;28;20518;-68
2022/12/27 07:14:09;;;;;;;4.33;4.13;;;;;;;;;;5030397;28;20440;-68
2022/12/27 07:16:35;;;;;;;2.90;2.70;;;;;;;;;;5031550;28;20427;-68
2022/12/27 07:19:01;;;;;;;9.23;4.23;;;;;;;;;;5029392;28;20435;-68
2022/12/27 07:21:28;;;;;;;4.77;3.30;;;;;;;;;;5013146;28;20449;-68
2022/12/27 07:23:55;;;;;;;4.43;4.10;;;;;;;;;;5009468;28;20435;-68
2022/12/27 07:26:22;;;;;;;5.37;4.80;;;;;;;;;;5030884;28;20436;-68
2022/12/27 07:28:48;;;;;;;3.97;3.77;;;;;;;;;;5028450;28;20839;-68
2022/12/27 07:31:19;;;;;;;17.83;8.40;;;;;;;;;;5029351;28;20495;-65
2022/12/27 07:33:45;;;;;;;15.73;10.43;;;;;;;;;;5030419;28;20446;-68
2022/12/27 07:36:16;;;;;;;16.43;11.00;;;;;;;;;;5031175;28;20427;-68
2022/12/27 07:38:42;;;;;;;10.33;9.10;;;;;;;;;;5028021;28;20432;-68
2022/12/27 07:41:10;;;;;;;105.47;45.83;;;;;;;;;;5027986;28;20479;-68
2022/12/27 07:43:36;;;;;;;79.40;34.03;;;;;;;;;;5027642;28;20428;-66
2022/12/27 07:46:06;;;;;;;38.23;18.90;;;;;;;;;;5028753;28;20857;-68
2022/12/27 07:48:32;;;;;;;31.80;16.93;;;;;;;;;;5026504;28;21180;-68
2022/12/27 07:50:58;;;;;;;21.60;14.00;;;;;;;;;;5030757;28;21021;-68
2022/12/27 07:53:24;;;;;;;18.47;10.00;;;;;;;;;;5025423;28;20444;-68
2022/12/27 07:55:50;;;;;;;18.87;9.27;;;;;;;;;;5030778;28;20427;-68
2022/12/27 07:58:17;;;;;;;10.30;7.53;;;;;;;;;;5001341;28;20526;-69
2022/12/27 08:00:45;;;;;;;10.03;8.10;;;;;;;;;;5020977;28;20935;-68
2022/12/27 08:03:11;;;;;;;8.17;5.90;;;;;;;;;;5010121;28;20462;-68
2022/12/27 08:05:37;;;;;;;5.57;5.23;;;;;;;;;;5027621;28;20447;-68
2022/12/27 08:08:03;;;;;;;3.70;3.33;;;;;;;;;;5023559;28;20440;-68
2022/12/27 08:10:29;;;;;;;9.73;4.97;;;;;;;;;;5017288;28;20490;-68
2022/12/27 08:12:55;;;;;;;9.83;5.43;;;;;;;;;;5025859;28;20461;-68
2022/12/27 08:15:21;;;;;;;12.37;7.03;;;;;;;;;;5026295;28;20443;-69
2022/12/27 08:17:47;;;;;;;9.57;7.60;;;;;;;;;;5025090;28;20547;-68
2022/12/27 08:20:13;;;;;;;16.70;11.27;;;;;;;;;;5026488;28;20518;-68
2022/12/27 08:22:40;;;;;;;7.83;7.07;;;;;;;;;;5029419;28;20443;-68
2022/12/27 08:25:06;;;;;;;19.37;9.53;;;;;;;;;;5026036;28;20435;-68
2022/12/27 08:27:32;;;;;;;7.93;5.37;;;;;;;;;;5025065;28;20470;-68
2022/12/27 08:29:58;;;;;;;8.43;4.37;;;;;;;;;;5025544;28;20471;-68
2022/12/27 08:32:24;;;;;;;5.80;4.07;;;;;;;;;;5023477;28;20487;-69
2022/12/27 08:34:50;;;;;;;6.83;4.87;;;;;;;;;;5026457;28;20431;-68
2022/12/27 08:37:16;;;;;;;5.63;5.20;;;;;;;;;;5025063;28;20461;-68
2022/12/27 08:39:42;;;;;;;5.43;4.63;;;;;;;;;;5017939;28;20427;-68
2022/12/27 08:42:12;;;;;;;6.17;5.57;;;;;;;;;;5026949;28;20458;-68
2022/12/27 08:44:38;;;;;;;4.97;4.47;;;;;;;;;;5008478;28;20923;-68
2022/12/27 08:47:04;;;;;;;7.13;6.03;;;;;;;;;;5027117;28;20444;-69
2022/12/27 08:49:30;;;;;;;8.53;7.13;;;;;;;;;;5024388;28;20454;-68
2022/12/27 08:51:56;;;;;;;9.80;7.40;;;;;;;;;;5005370;28;20497;-68
2022/12/27 08:54:22;;;;;;;7.00;5.63;;;;;;;;;;5016754;28;20434;-68
2022/12/27 08:56:49;;;;;;;6.77;5.20;;;;;;;;;;5028412;28;20446;-68
2022/12/27 08:59:15;;;;;;;5.67;5.17;;;;;;;;;;5025510;28;20435;-68
2022/12/27 09:01:41;;;;;;;12.93;6.93;;;;;;;;;;5027950;28;20481;-68
2022/12/27 09:04:07;;;;;;;14.97;7.60;;;;;;;;;;5010201;28;20439;-68
2022/12/27 09:06:33;;;;;;;36.97;8.10;;;;;;;;;;5025198;28;20853;-68
2022/12/27 09:09:00;;;;;;;8.83;6.10;;;;;;;;;;5026821;28;20939;-68
2022/12/27 09:11:27;;;;;;;12.53;6.60;;;;;;;;;;5007501;28;20534;-68
2022/12/27 09:13:54;;;;;;;7.27;5.87;;;;;;;;;;5023651;28;21008;-68
2022/12/27 09:16:22;;;;;;;11.80;7.53;;;;;;;;;;5023916;28;20447;-68
2022/12/27 09:18:49;;;;;;;11.27;7.70;;;;;;;;;;5027725;28;20435;-69
2022/12/27 09:21:16;;;;;;;11.70;4.63;;;;;;;;;;5027815;28;20447;-68
2022/12/27 09:23:42;;;;;;;10.13;8.43;;;;;;;;;;5025485;28;20909;-69
2022/12/27 09:26:09;;;;;;;12.07;10.27;;;;;;;;;;5025724;28;20994;-69
2022/12/27 09:28:36;;;;;;;10.00;8.50;;;;;;;;;;5020865;28;20507;-68
2022/12/27 09:31:02;;;;;;;4.83;4.40;;;;;;;;;;5028771;28;20470;-68
2022/12/27 09:33:28;;;;;;;4.27;2.87;;;;;;;;;;5023891;28;20927;-68
2022/12/27 09:36:02;;;;;;;8.70;4.33;;;;;;;;;;5025712;28;20453;-68
2022/12/27 09:38:28;;;;;;;5.70;3.60;;;;;;;;;;5022908;28;20795;-68
2022/12/27 09:40:56;;;;;;;8.80;3.83;;;;;;;;;;5025727;28;20467;-68
2022/12/27 09:43:28;;;;;;;5.23;3.13;;;;;;;;;;5011730;28;20445;-68
2022/12/27 09:45:56;;;;;;;1.90;1.53;;;;;;;;;;5027631;28;20943;-68
2022/12/27 09:48:31;;;;;;;2.03;1.97;;;;;;;;;;5009736;28;20431;-68
2022/12/27 09:51:26;;;;;;;2.30;2.20;;;;;;;;;;5023460;28;20471;-68
2022/12/27 09:53:57;;;;;;;3.30;3.10;;;;;;;;;;5003016;28;20439;-68
2022/12/27 09:56:24;;;;;;;5.03;3.30;;;;;;;;;;5025909;28;20497;-68
2022/12/27 09:58:52;;;;;;;3.17;3.07;;;;;;;;;;5028115;28;20438;-68
2022/12/27 10:01:21;;;;;;;3.00;2.90;;;;;;;;;;5026686;28;21493;-68
2022/12/27 10:03:47;;;;;;;7.07;3.20;;;;;;;;;;5027709;28;20961;-68
2022/12/27 10:06:22;;;;;;;5.00;3.67;;;;;;;;;;5026962;28;20427;-68
2022/12/27 10:09:00;;;;;;;2.87;2.60;;;;;;;;;;5024199;28;21150;-68
2022/12/27 10:11:37;;;;;;;3.37;3.07;;;;;;;;;;5025164;28;20548;-68
2022/12/27 10:14:03;;;;;;;4.30;3.90;;;;;;;;;;5026486;28;20434;-68
2022/12/27 10:16:34;;;;;;;9.10;2.77;;;;;;;;;;5031119;28;20431;-68
2022/12/27 10:19:00;;;;;;;14.67;4.43;;;;;;;;;;5027310;28;20490;-68
2022/12/27 10:21:27;;;;;;;4.50;4.20;;;;;;;;;;5029533;28;20466;-68
2022/12/27 10:23:55;;;;;;;3.97;3.60;;;;;;;;;;5023630;28;20882;-68
2022/12/27 10:26:21;;;;;;;3.23;3.00;;;;;;;;;;5028594;28;20783;-68
2022/12/27 10:28:49;;;;;;;3.80;3.60;;;;;;;;;;5030085;28;20439;-68
2022/12/27 10:31:17;;;;;;;3.80;3.43;;;;;;;;;;5028207;28;21101;-68
2022/12/27 10:33:43;;;;;;;2.83;2.63;;;;;;;;;;5025571;28;20920;-67
2022/12/27 10:36:11;;;;;;;4.63;2.93;;;;;;;;;;5029697;28;20977;-68
2022/12/27 10:38:37;;;;;;;2.23;2.07;;;;;;;;;;5029675;28;20427;-68
2022/12/27 10:41:21;;;;;;;4.20;2.27;;;;;;;;;;5018019;28;21050;-67
2022/12/27 10:43:50;;;;;;;4.97;1.63;;;;;;;;;;5008588;28;20494;-68
2022/12/27 10:46:19;;;;;;;1.90;1.80;;;;;;;;;;5009429;28;20431;-68
2022/12/27 10:49:06;;;;;;;5.60;1.83;;;;;;;;;;5008415;28;20448;-67
2022/12/27 10:51:37;;;;;;;3.20;1.70;;;;;;;;;;5007815;28;20491;-68
2022/12/27 10:54:05;;;;;;;1.17;1.17;;;;;;;;;;5006756;28;21490;-68
2022/12/27 10:56:32;;;;;;;1.50;1.43;;;;;;;;;;5008863;28;20937;-68
2022/12/27 10:59:11;;;;;;;1.63;1.63;;;;;;;;;;5005441;28;20935;-67
2022/12/27 11:01:37;;;;;;;1.30;1.30;;;;;;;;;;5008151;28;20440;-67
2022/12/27 11:04:20;;;;;;;1.90;1.00;;;;;;;;;;5009217;28;20535;-67
2022/12/27 11:06:47;;;;;;;1.63;1.43;;;;;;;;;;5010081;28;20455;-67
2022/12/27 11:09:19;;;;;;;1.03;0.93;;;;;;;;;;5009301;28;20558;-67
2022/12/27 11:11:45;;;;;;;3.90;1.33;;;;;;;;;;5008916;28;20491;-67
2022/12/27 11:14:15;;;;;;;2.37;1.60;;;;;;;;;;5008233;28;20459;-68
2022/12/27 11:16:41;;;;;;;1.50;1.03;;;;;;;;;;5009543;28;20448;-67
2022/12/27 11:19:18;;;;;;;1.20;1.10;;;;;;;;;;5008646;28;20428;-67
2022/12/27 11:21:44;;;;;;;1.67;1.57;;;;;;;;;;5009408;28;20824;-67
2022/12/27 11:24:13;;;;;;;17.63;14.70;;;;;;;;;;5009723;28;20855;-67
2022/12/27 11:26:41;;;;;;;56.67;38.17;;;;;;;;;;5009237;28;20440;-67
2022/12/27 11:29:15;;;;;;;13.80;11.40;;;;;;;;;;5010042;28;20474;-68
2022/12/27 11:31:46;;;;;;;2.13;2.00;;;;;;;;;;5010636;28;20978;-67
2022/12/27 11:34:15;;;;;;;2.50;0.90;;;;;;;;;;5009839;28;20440;-67
2022/12/27 11:36:43;;;;;;;24.37;16.20;;;;;;;;;;5010164;28;20460;-68
2022/12/27 11:39:28;;;;;;;4.50;3.60;;;;;;;;;;5010319;28;20443;-67
2022/12/27 11:41:56;;;;;;;30.33;6.20;;;;;;;;;;5026482;28;20522;-67
2022/12/27 11:44:26;;;;;;;3.80;3.17;;;;;;;;;;5011681;28;20435;-67
2022/12/27 11:46:54;;;;;;;12.13;7.77;;;;;;;;;;5025344;28;20432;-67
2022/12/27 11:49:22;;;;;;;1.23;1.23;;;;;;;;;;5024701;28;20478;-67
2022/12/27 11:51:48;;;;;;;4.37;1.10;;;;;;;;;;5028906;28;20482;-67
2022/12/27 11:54:14;;;;;;;2.00;1.90;;;;;;;;;;5022942;28;20778;-67
2022/12/27 11:56:52;;;;;;;1.60;1.53;;;;;;;;;;5025857;28;20797;-69
2022/12/27 11:59:21;;;;;;;3.97;3.73;;;;;;;;;;5028144;28;20437;-67
2022/12/27 12:02:03;;;;;;;2.10;1.77;;;;;;;;;;5024864;28;20486;-67
2022/12/27 12:04:38;;;;;;;7.60;6.17;;;;;;;;;;5024959;28;20531;-67
2022/12/27 12:07:10;;;;;;;7.93;4.03;;;;;;;;;;5029570;28;20514;-67
2022/12/27 12:09:55;;;;;;;1.47;1.47;;;;;;;;;;5022227;28;20477;-67
2022/12/27 12:12:48;;;;;;;2.00;1.10;;;;;;;;;;5022438;28;20523;-67
2022/12/27 12:15:17;;;;;;;1.27;1.27;;;;;;;;;;5025223;28;20531;-67
2022/12/27 12:17:56;;;;;;;1.77;0.90;;;;;;;;;;5027061;28;20511;-67
2022/12/27 12:20:27;;;;;;;1.60;1.50;;;;;;;;;;5022235;28;20435;-67
2022/12/27 12:23:06;;;;;;;9.40;8.13;;;;;;;;;;5026312;28;20526;-67
2022/12/27 12:25:40;;;;;;;2.03;1.83;;;;;;;;;;5025266;28;20493;-67
2022/12/27 12:28:06;;;;;;;4.80;1.20;;;;;;;;;;5001353;28;20434;-67
2022/12/27 12:31:08;;;;;;;2.33;0.90;;;;;;;;;;5024103;28;20470;-67
2022/12/27 12:33:52;;;;;;;4.90;0.83;;;;;;;;;;4930910;29;20455;-66
2022/12/27 12:36:21;;;;;;;1.17;0.80;;;;;;;;;;5014509;28;20438;-67
2022/12/27 12:38:52;;;;;;;2.00;1.03;;;;;;;;;;5025827;28;20435;-67
2022/12/27 12:41:28;;;;;;;4.80;0.80;;;;;;;;;;5026005;28;20479;-68
2022/12/27 12:44:03;;;;;;;2.00;1.90;;;;;;;;;;5023067;28;20504;-70
2022/12/27 12:46:45;;;;;;;0.90;0.87;;;;;;;;;;5020769;28;20462;-70
2022/12/27 12:49:24;;;;;;;2.30;1.60;;;;;;;;;;5026095;28;20435;-69
2022/12/27 12:52:09;;;;;;;2.20;1.10;;;;;;;;;;5027123;28;20487;-70
2022/12/27 12:55:13;;;;;;;0.90;0.90;;;;;;;;;;5022310;28;20501;-70
2022/12/27 12:57:57;;;;;;;3.20;2.30;;;;;;;;;;4967054;28;20528;-67
2022/12/27 13:00:27;;;;;;;39.57;23.30;;;;;;;;;;4950459;28;21279;-68
2022/12/27 13:03:02;;;;;;;9.27;6.60;;;;;;;;;;4999856;28;20435;-67
2022/12/27 13:05:46;;;;;;;8.13;7.50;;;;;;;;;;5027247;28;20803;-68
2022/12/27 13:08:12;;;;;;;5.03;3.70;;;;;;;;;;5025261;28;20521;-68
2022/12/27 13:10:41;;;;;;;3.23;1.67;;;;;;;;;;5026883;28;20880;-67
2022/12/27 13:13:22;;;;;;;3.13;1.57;;;;;;;;;;5025819;28;20840;-67
2022/12/27 13:16:07;;;;;;;2.70;1.97;;;;;;;;;;5028635;28;20453;-68
2022/12/27 13:18:57;;;;;;;4.07;1.00;;;;;;;;;;5026577;28;20479;-67
2022/12/27 13:21:44;;;;;;;1.63;1.53;;;;;;;;;;5027732;28;20526;-70
2022/12/27 13:24:18;;;;;;;4.60;3.10;;;;;;;;;;4977044;28;20423;-68
2022/12/27 13:26:44;;;;;;;2.20;1.30;;;;;;;;;;5027861;28;20549;-68
2022/12/27 13:29:34;;;;;;;8.73;5.03;;;;;;;;;;5025922;28;20427;-68
2022/12/27 13:32:00;;;;;;;3.40;1.87;;;;;;;;;;5009826;28;20566;-68
2022/12/27 13:34:26;;;;;;;2.30;2.20;;;;;;;;;;5024794;28;20526;-68
2022/12/27 13:36:58;;;;;;;2.77;1.17;;;;;;;;;;5028707;28;21002;-68
2022/12/27 13:39:30;;;;;;;3.13;1.13;;;;;;;;;;5028000;28;20517;-68
2022/12/27 13:42:21;;;;;;;3.93;1.10;;;;;;;;;;4992877;28;20623;-68
2022/12/27 13:45:06;;;;;;;2.60;1.60;;;;;;;;;;4994057;28;20436;-67
2022/12/27 13:47:37;;;;;;;1.30;1.30;;;;;;;;;;4991265;28;20801;-68
2022/12/27 13:50:09;;;;;;;1.27;1.17;;;;;;;;;;4993817;28;20421;-68
2022/12/27 13:52:44;;;;;;;2.97;2.03;;;;;;;;;;4992977;28;20444;-68
2022/12/27 13:55:25;;;;;;;1.37;1.37;;;;;;;;;;4993312;28;20419;-68
2022/12/27 13:58:01;;;;;;;2.33;2.20;;;;;;;;;;4992515;28;20440;-67
2022/12/27 14:00:59;;;;;;;0.77;0.63;;;;;;;;;;4993002;28;20944;-67
2022/12/27 14:03:44;;;;;;;7.90;2.03;;;;;;;;;;4977374;28;20531;-67
2022/12/27 14:06:18;;;;;;;16.30;2.10;;;;;;;;;;4991874;28;20432;-67
2022/12/27 14:08:47;;;;;;;1.77;1.67;;;;;;;;;;4992584;28;20872;-68
2022/12/27 14:11:26;;;;;;;3.23;2.93;;;;;;;;;;4992769;28;20477;-67
2022/12/27 14:13:52;;;;;;;1.37;1.30;;;;;;;;;;4992376;28;20440;-68
2022/12/27 14:16:30;;;;;;;1.70;1.57;;;;;;;;;;4991457;28;20475;-68
2022/12/27 14:19:02;;;;;;;2.23;1.60;;;;;;;;;;4990646;28;20425;-68
2022/12/27 14:21:42;;;;;;;8.50;2.17;;;;;;;;;;4992068;28;20994;-67
2022/12/27 14:24:16;;;;;;;0.70;0.70;;;;;;;;;;4992592;28;20443;-67
2022/12/27 14:26:55;;;;;;;0.83;0.83;;;;;;;;;;4992640;28;20452;-68
2022/12/27 14:29:43;;;;;;;7.53;1.00;;;;;;;;;;4991507;28;20444;-68
2022/12/27 14:32:12;;;;;;;1.27;1.13;;;;;;;;;;4991634;28;20578;-67
2022/12/27 14:34:38;;;;;;;4.30;1.60;;;;;;;;;;4992750;28;20429;-67
2022/12/27 14:37:13;;;;;;;1.53;1.43;;;;;;;;;;4991080;28;20451;-68
2022/12/27 14:39:45;;;;;;;6.90;1.87;;;;;;;;;;4992505;28;20976;-68
2022/12/27 14:42:22;;;;;;;1.50;1.40;;;;;;;;;;4990268;28;20449;-68
2022/12/27 14:45:08;;;;;;;1.00;1.00;;;;;;;;;;4991178;28;20443;-67
2022/12/27 14:47:52;;;;;;;7.10;1.60;;;;;;;;;;4991738;28;20927;-67
2022/12/27 14:50:18;;;;;;;1.07;1.00;;;;;;;;;;4989995;28;20437;-67
2022/12/27 14:53:02;;;;;;;3.37;1.13;;;;;;;;;;4991791;28;20451;-68
2022/12/27 14:55:31;;;;;;;2.73;1.90;;;;;;;;;;4991929;28;20495;-68
2022/12/27 14:58:16;;;;;;;2.40;0.97;;;;;;;;;;4991255;28;20433;-68
2022/12/27 15:00:57;;;;;;;2.10;1.37;;;;;;;;;;4991618;28;20460;-68
2022/12/27 15:03:49;;;;;;;2.23;1.60;;;;;;;;;;4992158;28;20508;-68
2022/12/27 15:06:24;;;;;;;2.87;2.43;;;;;;;;;;4990769;28;20464;-67
2022/12/27 15:08:54;;;;;;;5.93;1.80;;;;;;;;;;4991916;28;20436;-68
2022/12/27 15:11:43;;;;;;;8.20;2.20;;;;;;;;;;4989568;28;20485;-68
2022/12/27 15:14:32;;;;;;;6.50;1.60;;;;;;;;;;4990217;28;20862;-67
2022/12/27 15:17:16;;;;;;;4.67;2.83;;;;;;;;;;4991102;28;20848;-67
2022/12/27 15:20:01;;;;;;;2.33;2.23;;;;;;;;;;4992369;28;20523;-67
2022/12/27 15:22:35;;;;;;;4.53;4.07;;;;;;;;;;4991743;28;20421;-67
2022/12/27 15:25:20;;;;;;;1.33;1.17;;;;;;;;;;4992797;28;20413;-68
2022/12/27 15:28:04;;;;;;;4.87;2.17;;;;;;;;;;4990777;28;20432;-67
2022/12/27 15:30:33;;;;;;;4.43;2.90;;;;;;;;;;4991960;28;20469;-67
2022/12/27 15:33:18;;;;;;;2.63;2.27;;;;;;;;;;4991695;28;20492;-67
2022/12/27 15:36:00;;;;;;;4.73;2.00;;;;;;;;;;4991768;28;20420;-68
2022/12/27 15:38:26;;;;;;;7.43;2.13;;;;;;;;;;4992193;28;20429;-68
2022/12/27 15:41:04;;;;;;;8.53;2.10;;;;;;;;;;5001176;28;20525;-67
2022/12/27 15:43:49;;;;;;;2.60;2.20;;;;;;;;;;5008974;28;20458;-67
2022/12/27 15:46:41;;;;;;;4.90;1.73;;;;;;;;;;5010742;28;20432;-68
2022/12/27 15:49:13;;;;;;;10.33;1.67;;;;;;;;;;4987570;28;20980;-67
2022/12/27 15:51:58;;;;;;;3.93;1.80;;;;;;;;;;5010409;28;20575;-67
2022/12/27 15:54:42;;;;;;;3.63;2.47;;;;;;;;;;5011333;28;20527;-68
2022/12/27 15:57:27;;;;;;;2.50;2.40;;;;;;;;;;5010487;28;20413;-67
2022/12/27 15:59:54;;;;;;;6.23;1.80;;;;;;;;;;5009338;28;20959;-68
2022/12/27 16:02:26;;;;;;;4.80;4.37;;;;;;;;;;5009899;28;20446;-67
2022/12/27 16:04:52;;;;;;;19.60;9.10;;;;;;;;;;5010872;28;20945;-67
2022/12/27 16:07:38;;;;;;;25.13;12.63;;;;;;;;;;5010362;28;20444;-68
2022/12/27 16:10:23;;;;;;;7.80;3.90;;;;;;;;;;5009502;28;20444;-68
2022/12/27 16:12:49;;;;;;;8.53;5.10;;;;;;;;;;5009700;28;20448;-68
2022/12/27 16:15:34;;;;;;;9.33;5.00;;;;;;;;;;5009738;28;20836;-67
2022/12/27 16:18:02;;;;;;;7.10;3.70;;;;;;;;;;5001452;28;20487;-68
2022/12/27 16:20:28;;;;;;;32.80;14.30;;;;;;;;;;5021309;28;20787;-68
2022/12/27 16:23:01;;;;;;;26.80;12.30;;;;;;;;;;5009151;28;20440;-68
2022/12/27 16:25:35;;;;;;;34.83;11.10;;;;;;;;;;5010535;28;20563;-68
2022/12/27 16:28:04;;;;;;;8.13;4.00;;;;;;;;;;5008852;28;20432;-68
2022/12/27 16:30:41;;;;;;;4.30;3.87;;;;;;;;;;5007955;28;20482;-68
2022/12/27 16:33:22;;;;;;;10.13;3.60;;;;;;;;;;5006097;28;20867;-68
2022/12/27 16:36:21;;;;;;;3.40;3.10;;;;;;;;;;5008255;28;20444;-67
2022/12/27 16:38:58;;;;;;;4.47;3.10;;;;;;;;;;4972668;28;20552;-68